Time;durP1;ratioP1;P1;durP2;ratioP2;P2;SDS_P1;SDS_P2;PMS_P1;PMS_P2;Temp;Humidity;BMP_temperature;BMP_pressure;BME280_temperature;BME280_humidity;BME280_pressure;Samples;Min_cycle;Max_cycle;Signal;HPM_P1;HPM_P2
2021/06/18 00:00:20;;;;;;;25.30;17.25;;;;;;;-145.50;100.00;65435.88;4927278;29;20158;-45
2021/06/18 00:02:48;;;;;;;24.42;17.23;;;;;;;-145.50;100.00;65435.88;4919810;29;20127;-45
2021/06/18 00:05:15;;;;;;;27.80;20.08;;;;;;;-145.50;100.00;65435.88;4908502;29;20642;-45
2021/06/18 00:07:43;;;;;;;25.35;19.27;;;;;;;-145.50;100.00;65435.88;4918860;28;20111;-45
2021/06/18 00:10:12;;;;;;;31.77;20.33;;;;;;;-145.50;100.00;65435.88;4923344;29;20162;-45
2021/06/18 00:12:40;;;;;;;26.58;18.70;;;;;;;-145.50;100.00;65435.88;4919776;29;20056;-46
2021/06/18 00:15:08;;;;;;;29.08;19.77;;;;;;;-145.50;100.00;65435.88;4927205;29;20052;-45
2021/06/18 00:17:36;;;;;;;27.73;20.63;;;;;;;-145.50;100.00;65435.88;4926594;29;20154;-45
2021/06/18 00:20:07;;;;;;;29.45;21.25;;;;;;;-145.50;100.00;65435.88;4919891;29;20086;-47
2021/06/18 00:22:34;;;;;;;29.52;22.00;;;;;;;-145.50;100.00;65435.88;4921788;29;20055;-45
2021/06/18 00:25:00;;;;;;;27.08;20.98;;;;;;;-145.50;100.00;65435.88;4918093;29;20162;-45
2021/06/18 00:27:27;;;;;;;31.00;19.75;;;;;;;-145.50;100.00;65435.88;4926736;29;20154;-45
2021/06/18 00:29:53;;;;;;;32.72;22.90;;;;;;;-145.50;100.00;65435.88;4904275;29;20142;-48
2021/06/18 00:32:20;;;;;;;32.88;23.00;;;;;;;-145.50;100.00;65435.88;4925677;29;20138;-47
2021/06/18 00:34:47;;;;;;;31.33;23.23;;;;;;;-145.50;100.00;65435.88;4918342;29;20070;-47
2021/06/18 00:37:13;;;;;;;35.17;24.20;;;;;;;-145.50;100.00;65435.88;4921167;29;20134;-48
2021/06/18 00:39:40;;;;;;;32.65;24.33;;;;;;;-145.50;100.00;65435.88;4925232;29;20090;-46
2021/06/18 00:42:07;;;;;;;35.15;24.17;;;;;;;-145.50;100.00;65435.88;4921826;29;20082;-48
2021/06/18 00:44:35;;;;;;;31.63;22.40;;;;;;;-145.50;100.00;65435.88;4925791;29;20166;-45
2021/06/18 00:47:03;;;;;;;28.02;21.92;;;;;;;-145.50;100.00;65435.88;4920517;29;20419;-45
2021/06/18 00:49:30;;;;;;;30.38;23.65;;;;;;;-145.50;100.00;65435.88;4922723;29;20398;-45
2021/06/18 00:51:57;;;;;;;25.73;21.87;;;;;;;-145.50;100.00;65435.88;4913817;29;20241;-46
2021/06/18 00:54:30;;;;;;;36.40;24.83;;;;;;;-145.50;100.00;65435.88;4925568;29;20368;-47
2021/06/18 00:56:58;;;;;;;32.92;23.63;;;;;;;-145.50;100.00;65435.88;4921155;29;20083;-47
2021/06/18 00:59:25;;;;;;;30.83;24.23;;;;;;;-145.50;100.00;65435.88;4925405;29;20142;-45
2021/06/18 01:01:53;;;;;;;30.63;24.25;;;;;;;-145.50;100.00;65435.88;4926151;29;20087;-45
2021/06/18 01:04:22;;;;;;;35.63;25.75;;;;;;;-145.50;100.00;65435.88;4915912;29;20047;-45
2021/06/18 01:06:55;;;;;;;35.63;27.08;;;;;;;-145.50;100.00;65435.88;4922269;29;20052;-45
2021/06/18 01:09:22;;;;;;;39.42;28.45;;;;;;;-145.50;100.00;65435.88;4919033;29;20090;-46
2021/06/18 01:12:04;;;;;;;35.17;27.10;;;;;;;-145.50;100.00;65435.88;4923603;29;20146;-44
2021/06/18 01:15:02;;;;;;;34.80;28.92;;;;;;;-145.50;100.00;65435.88;4919960;29;20423;-45
2021/06/18 01:18:01;;;;;;;36.75;27.42;;;;;;;-145.50;100.00;65435.88;4921330;29;20056;-45
2021/06/18 01:20:33;;;;;;;37.67;28.77;;;;;;;-145.50;100.00;65435.88;4911910;29;20146;-45
2021/06/18 01:23:04;;;;;;;42.38;29.38;;;;;;;-145.50;100.00;65435.88;4923670;29;20139;-46
2021/06/18 01:25:49;;;;;;;40.25;30.77;;;;;;;-145.50;100.00;65435.88;4914665;29;20086;-45
2021/06/18 01:28:36;;;;;;;40.88;30.55;;;;;;;-145.50;100.00;65435.88;4925806;29;20150;-46
2021/06/18 01:31:04;;;;;;;44.13;30.45;;;;;;;-145.50;100.00;65435.88;4899398;29;20138;-45
2021/06/18 01:33:35;;;;;;;42.15;30.92;;;;;;;-145.50;100.00;65435.88;4920040;29;20055;-48
2021/06/18 01:36:04;;;;;;;43.25;30.80;;;;;;;-145.50;100.00;65435.88;4919534;29;20991;-45
2021/06/18 01:38:34;;;;;;;41.33;31.77;;;;;;;-145.50;100.00;65435.88;4924204;29;20091;-45
2021/06/18 01:41:04;;;;;;;39.70;29.98;;;;;;;-145.50;100.00;65435.88;4908683;29;20674;-45
2021/06/18 01:43:34;;;;;;;39.55;30.92;;;;;;;-145.50;100.00;65435.88;4918873;29;20142;-45
2021/06/18 01:46:02;;;;;;;38.13;29.45;;;;;;;-145.50;100.00;65435.88;4904471;29;20074;-45
2021/06/18 01:48:32;;;;;;;38.10;31.35;;;;;;;-145.50;100.00;65435.88;4898401;29;20480;-45
2021/06/18 01:51:00;;;;;;;45.72;31.92;;;;;;;-145.50;100.00;65435.88;4925850;29;20139;-45
2021/06/18 01:53:28;;;;;;;41.92;31.80;;;;;;;-145.50;100.00;65435.88;4918018;29;20150;-45
2021/06/18 01:55:57;;;;;;;39.95;32.78;;;;;;;-145.50;100.00;65435.88;4908622;29;20140;-45
2021/06/18 01:58:26;;;;;;;43.47;34.22;;;;;;;-145.50;100.00;65435.88;4918756;29;20138;-48
2021/06/18 02:00:52;;;;;;;40.97;32.33;;;;;;;-145.50;100.00;65435.88;4919893;29;20172;-45
2021/06/18 02:03:26;;;;;;;45.15;32.97;;;;;;;-145.50;100.00;65435.88;4917242;29;20055;-45
2021/06/18 02:05:56;;;;;;;40.58;32.47;;;;;;;-145.50;100.00;65435.88;4908204;29;20087;-46
2021/06/18 02:08:25;;;;;;;40.97;31.45;;;;;;;-145.50;100.00;65435.88;4925644;29;20134;-45
2021/06/18 02:10:53;;;;;;;43.15;33.03;;;;;;;-145.50;100.00;65435.88;4917834;29;20142;-45
2021/06/18 02:13:21;;;;;;;47.20;32.45;;;;;;;-145.50;100.00;65435.88;4920967;29;20587;-48
2021/06/18 02:15:48;;;;;;;;;;;;;;;-145.50;100.00;65435.88;4916508;29;20725;-45
2021/06/18 02:18:20;;;;;;;39.60;31.27;;;;;;;-145.50;100.00;65435.88;4925092;29;20018;-46
2021/06/18 02:20:47;;;;;;;45.30;33.22;;;;;;;-145.50;100.00;65435.88;4903316;29;20143;-45
2021/06/18 02:23:15;;;;;;;35.35;30.63;;;;;;;-145.50;100.00;65435.88;4924931;29;20682;-46
2021/06/18 02:25:42;;;;;;;;;;;;;;;-145.50;100.00;65435.88;4918459;29;20090;-48
2021/06/18 02:28:09;;;;;;;48.67;32.58;;;;;;;-145.50;100.00;65435.88;4923513;29;19926;-45
2021/06/18 02:30:36;;;;;;;41.35;31.80;;;;;;;-145.50;100.00;65435.88;4924603;29;20142;-45
2021/06/18 02:33:10;;;;;;;42.40;31.27;;;;;;;-145.50;100.00;65435.88;4922191;29;20082;-45
2021/06/18 02:35:41;;;;;;;43.58;31.70;;;;;;;-145.50;100.00;65435.88;4928228;29;20055;-47
2021/06/18 02:38:09;;;;;;;41.22;32.38;;;;;;;-145.50;100.00;65435.88;4922515;29;20087;-45
2021/06/18 02:40:36;;;;;;;42.40;32.10;;;;;;;-145.50;100.00;65435.88;4928572;29;20630;-44
2021/06/18 02:43:03;;;;;;;40.55;32.80;;;;;;;-145.50;100.00;65435.88;4914699;29;20115;-44
2021/06/18 02:45:30;;;;;;;45.63;32.30;;;;;;;-145.50;100.00;65435.88;4927993;29;20162;-44
2021/06/18 02:48:12;;;;;;;43.67;31.48;;;;;;;-145.50;100.00;65435.88;4922972;29;20134;-44
2021/06/18 02:50:44;;;;;;;47.63;34.25;;;;;;;-145.50;100.00;65435.88;4927888;29;20091;-45
2021/06/18 02:53:17;;;;;;;42.42;32.15;;;;;;;-145.50;100.00;65435.88;4927797;29;20464;-45
2021/06/18 02:55:58;;;;;;;49.35;33.83;;;;;;;-145.50;100.00;65435.88;4919636;29;20147;-44
2021/06/18 02:58:29;;;;;;;40.85;32.00;;;;;;;-145.50;100.00;65435.88;4922795;29;20166;-44
2021/06/18 03:00:55;;;;;;;44.20;33.95;;;;;;;-145.50;100.00;65435.88;4921688;29;20587;-45
2021/06/18 03:03:26;;;;;;;46.20;34.75;;;;;;;-145.50;100.00;65435.88;4927500;29;20094;-46
2021/06/18 03:05:58;;;;;;;47.83;35.08;;;;;;;-145.50;100.00;65435.88;4922121;29;20142;-44
2021/06/18 03:08:29;;;;;;;42.45;33.55;;;;;;;-145.50;100.00;65435.88;4927950;29;20130;-44
2021/06/18 03:10:57;;;;;;;41.45;34.00;;;;;;;-145.50;100.00;65435.88;4916253;29;20086;-46
2021/06/18 03:13:27;;;;;;;46.58;35.55;;;;;;;-145.50;100.00;65435.88;4924610;29;20134;-44
2021/06/18 03:15:53;;;;;;;42.58;34.40;;;;;;;-145.50;100.00;65435.88;4922096;29;20171;-44
2021/06/18 03:18:22;;;;;;;44.13;35.28;;;;;;;-145.50;100.00;65435.88;4927317;29;20147;-44
2021/06/18 03:20:51;;;;;;;41.13;33.10;;;;;;;-145.50;100.00;65435.88;4928094;29;20556;-44
2021/06/18 03:23:21;;;;;;;45.90;35.45;;;;;;;-145.50;100.00;65435.88;4917821;29;20083;-44
2021/06/18 03:25:51;;;;;;;39.35;32.58;;;;;;;-145.50;100.00;65435.88;4923574;29;20055;-45
2021/06/18 03:28:20;;;;;;;45.72;35.15;;;;;;;-145.50;100.00;65435.88;4921449;29;20146;-45
2021/06/18 03:30:48;;;;;;;44.00;34.65;;;;;;;-145.50;100.00;65435.88;4927953;29;20220;-46
2021/06/18 03:33:16;;;;;;;42.58;33.88;;;;;;;-145.50;100.00;65435.88;4920749;29;20078;-44
2021/06/18 03:35:43;;;;;;;45.67;34.30;;;;;;;-145.50;100.00;65435.88;4927237;29;20070;-44
2021/06/18 03:38:10;;;;;;;43.35;34.00;;;;;;;-145.50;100.00;65435.88;4918718;29;20584;-45
2021/06/18 03:40:39;;;;;;;44.10;35.28;;;;;;;-145.50;100.00;65435.88;4922413;29;20138;-47
2021/06/18 03:43:06;;;;;;;47.55;36.60;;;;;;;-145.50;100.00;65435.88;4927267;29;20056;-46
2021/06/18 03:45:36;;;;;;;48.70;35.83;;;;;;;-145.50;100.00;65435.88;4920473;29;20142;-45
2021/06/18 03:48:03;;;;;;;45.78;35.60;;;;;;;-145.50;100.00;65435.88;4927690;29;20091;-45
2021/06/18 03:50:33;;;;;;;49.08;35.67;;;;;;;-145.50;100.00;65435.88;4921075;29;20221;-44
2021/06/18 03:53:01;;;;;;;46.42;36.38;;;;;;;-145.50;100.00;65435.88;4922606;29;20150;-46
2021/06/18 03:55:28;;;;;;;49.65;35.15;;;;;;;-145.50;100.00;65435.88;4921148;29;20568;-47
2021/06/18 03:57:56;;;;;;;50.78;36.25;;;;;;;-145.50;100.00;65435.88;4927607;29;20146;-44
2021/06/18 04:00:23;;;;;;;49.85;33.95;;;;;;;-145.50;100.00;65435.88;4919444;29;20087;-48
2021/06/18 04:02:51;;;;;;;42.72;34.95;;;;;;;-145.50;100.00;65435.88;4927133;29;20573;-47
2021/06/18 04:05:22;;;;;;;51.38;36.35;;;;;;;-145.50;100.00;65435.88;4926931;29;20431;-45
2021/06/18 04:07:51;;;;;;;48.58;35.75;;;;;;;-145.50;100.00;65435.88;4921131;29;20151;-45
2021/06/18 04:10:18;;;;;;;51.00;37.95;;;;;;;-145.50;100.00;65435.88;4910021;29;20102;-45
2021/06/18 04:12:49;;;;;;;46.33;35.08;;;;;;;-145.50;100.00;65435.88;4920848;29;20059;-46
2021/06/18 04:15:18;;;;;;;48.30;34.90;;;;;;;-145.50;100.00;65435.88;4922275;29;20064;-46
2021/06/18 04:17:44;;;;;;;;;;;;;;;-145.50;100.00;65435.88;4917175;29;20054;-45
2021/06/18 04:20:12;;;;;;;47.72;33.63;;;;;;;-145.50;100.00;65435.88;4926858;29;20143;-46
2021/06/18 04:22:39;;;;;;;28.23;20.77;;;;;;;-145.50;100.00;65435.88;4920407;29;20055;-44
2021/06/18 04:25:06;;;;;;;40.58;19.65;;;;;;;-145.50;100.00;65435.88;4927188;29;20555;-46
2021/06/18 04:27:33;;;;;;;43.88;31.92;;;;;;;-145.50;100.00;65435.88;4923533;29;20123;-46
2021/06/18 04:30:07;;;;;;;46.40;34.55;;;;;;;-145.50;100.00;65435.88;4917615;29;20534;-45
2021/06/18 04:32:33;;;;;;;38.50;30.40;;;;;;;-145.50;100.00;65435.88;4924145;29;20058;-44
2021/06/18 04:35:00;;;;;;;45.03;32.92;;;;;;;-145.50;100.00;65435.88;4921403;29;20138;-45
2021/06/18 04:37:27;;;;;;;42.83;32.38;;;;;;;-145.50;100.00;65435.88;4926894;29;20840;-44
2021/06/18 04:39:55;;;;;;;41.40;32.13;;;;;;;-145.50;100.00;65435.88;4921375;29;20083;-45
2021/06/18 04:42:21;;;;;;;42.53;30.27;;;;;;;-145.50;100.00;65435.88;4921707;29;20598;-49
2021/06/18 04:44:48;;;;;;;41.13;29.95;;;;;;;-145.50;100.00;65435.88;4917495;29;20326;-45
2021/06/18 04:47:14;;;;;;;38.53;30.55;;;;;;;-145.50;100.00;65435.88;4926289;29;20099;-44
2021/06/18 04:49:41;;;;;;;39.10;26.83;;;;;;;-145.50;100.00;65435.88;4924684;29;20437;-46
2021/06/18 04:52:07;;;;;;;32.08;25.90;;;;;;;-145.50;100.00;65435.88;4918374;29;20146;-44
2021/06/18 04:54:34;;;;;;;80.65;34.30;;;;;;;-145.50;100.00;65435.88;4925149;29;20110;-43
2021/06/18 04:57:01;;;;;;;65.47;30.95;;;;;;;-145.50;100.00;65435.88;4914610;29;20087;-45
2021/06/18 04:59:27;;;;;;;91.97;35.60;;;;;;;-145.50;100.00;65435.88;4925874;29;20090;-45
2021/06/18 05:01:54;;;;;;;53.58;30.15;;;;;;;-145.50;100.00;65435.88;4919273;29;20174;-45
2021/06/18 05:04:20;;;;;;;50.47;31.58;;;;;;;-145.50;100.00;65435.88;4924915;29;20062;-45
2021/06/18 05:06:47;;;;;;;45.55;32.55;;;;;;;-145.50;100.00;65435.88;4926411;29;20146;-44
2021/06/18 05:09:14;;;;;;;46.85;34.40;;;;;;;-145.50;100.00;65435.88;4916740;29;20083;-46
2021/06/18 05:11:40;;;;;;;44.35;33.58;;;;;;;-145.50;100.00;65435.88;4911903;29;20052;-46
2021/06/18 05:14:07;;;;;;;41.45;32.28;;;;;;;-145.50;100.00;65435.88;4903211;29;20087;-47
2021/06/18 05:16:33;;;;;;;44.38;33.60;;;;;;;-145.50;100.00;65435.88;4925778;29;20504;-46
2021/06/18 05:19:00;;;;;;;45.15;33.53;;;;;;;-145.50;100.00;65435.88;4919826;29;20051;-48
2021/06/18 05:21:26;;;;;;;40.22;29.95;;;;;;;-145.50;100.00;65435.88;4924401;29;20162;-47
2021/06/18 05:23:52;;;;;;;36.13;28.10;;;;;;;-145.50;100.00;65435.88;4920296;29;20775;-47
2021/06/18 05:26:19;;;;;;;36.83;30.17;;;;;;;-145.50;100.00;65435.88;4917390;29;20079;-48
2021/06/18 05:28:45;;;;;;;37.22;27.23;;;;;;;-145.50;100.00;65435.88;4908478;29;20057;-51
2021/06/18 05:31:12;;;;;;;37.00;26.58;;;;;;;-145.50;100.00;65435.88;4919898;29;20055;-48
2021/06/18 05:33:39;;;;;;;32.30;28.00;;;;;;;-145.50;100.00;65435.88;4925011;29;20086;-48
2021/06/18 05:36:05;;;;;;;36.85;29.52;;;;;;;-145.50;100.00;65435.88;4919236;29;20194;-48
2021/06/18 05:38:32;;;;;;;34.90;28.95;;;;;;;-145.50;100.00;65435.88;4921157;29;20135;-49
2021/06/18 05:40:58;;;;;;;38.83;31.67;;;;;;;-145.50;100.00;65435.88;4900830;29;20163;-48
2021/06/18 05:43:25;;;;;;;36.88;32.30;;;;;;;-145.50;100.00;65435.88;4923784;29;20173;-51
2021/06/18 05:45:51;;;;;;;37.03;32.85;;;;;;;-145.50;100.00;65435.88;4912518;29;20090;-47
2021/06/18 05:48:18;;;;;;;37.35;30.75;;;;;;;-145.50;100.00;65435.88;4902671;29;20556;-53
2021/06/18 05:50:44;;;;;;;37.38;31.70;;;;;;;-145.50;100.00;65435.88;4921259;29;20047;-49
2021/06/18 05:53:11;;;;;;;41.90;35.00;;;;;;;-145.50;100.00;65435.88;4912300;29;20456;-50
2021/06/18 05:55:38;;;;;;;41.20;36.58;;;;;;;-145.50;100.00;65435.88;4925106;29;20425;-52
2021/06/18 05:58:04;;;;;;;44.95;36.25;;;;;;;-145.50;100.00;65435.88;4920048;29;20056;-50
2021/06/18 06:00:31;;;;;;;44.15;37.10;;;;;;;-145.50;100.00;65435.88;4923537;29;20167;-50
2021/06/18 06:03:10;;;;;;;45.95;38.53;;;;;;;-145.50;100.00;65435.88;4913069;29;20048;-49
2021/06/18 06:05:38;;;;;;;45.92;36.97;;;;;;;-145.50;100.00;65435.88;4925085;29;20146;-49
2021/06/18 06:08:13;;;;;;;45.20;37.70;;;;;;;-145.50;100.00;65435.88;4924462;29;20863;-50
2021/06/18 06:10:45;;;;;;;43.45;37.90;;;;;;;-145.50;100.00;65435.88;4922424;29;20106;-50
2021/06/18 06:13:12;;;;;;;38.67;32.95;;;;;;;-145.50;100.00;65435.88;4919683;29;20557;-51
2021/06/18 06:15:38;;;;;;;40.40;35.90;;;;;;;-145.50;100.00;65435.88;4911452;29;20523;-51
2021/06/18 06:18:05;;;;;;;38.10;32.97;;;;;;;-145.50;100.00;65435.88;4928965;29;20058;-48
2021/06/18 06:20:31;;;;;;;40.08;35.75;;;;;;;-145.50;100.00;65435.88;4917366;29;20098;-47
2021/06/18 06:22:57;;;;;;;41.85;34.15;;;;;;;-145.50;100.00;65435.88;4926007;29;20143;-48
2021/06/18 06:25:24;;;;;;;38.72;33.75;;;;;;;-145.50;100.00;65435.88;4926848;29;20139;-48
2021/06/18 06:27:51;;;;;;;36.85;32.85;;;;;;;-145.50;100.00;65435.88;4909206;29;20564;-48
2021/06/18 06:30:17;;;;;;;42.28;36.97;;;;;;;-145.50;100.00;65435.88;4927689;29;20516;-49
2021/06/18 06:32:44;;;;;;;41.33;36.85;;;;;;;-145.50;100.00;65435.88;4919427;29;20118;-51
2021/06/18 06:35:11;;;;;;;39.38;34.88;;;;;;;-145.50;100.00;65435.88;4924070;29;20052;-48
2021/06/18 06:37:37;;;;;;;37.90;33.60;;;;;;;-145.50;100.00;65435.88;4912589;29;20175;-47
2021/06/18 06:40:06;;;;;;;40.13;35.72;;;;;;;-145.50;100.00;65435.88;4912363;29;20080;-47
2021/06/18 06:42:32;;;;;;;42.03;37.63;;;;;;;-145.50;100.00;65435.88;4914677;29;20138;-49
2021/06/18 06:44:59;;;;;;;40.33;35.92;;;;;;;-145.50;100.00;65435.88;4911940;29;20893;-47
2021/06/18 06:47:25;;;;;;;37.63;33.55;;;;;;;-145.50;100.00;65435.88;4911424;29;20083;-47
2021/06/18 06:49:52;;;;;;;38.47;34.30;;;;;;;-145.50;100.00;65435.88;4918700;29;20083;-49
2021/06/18 06:52:19;;;;;;;39.83;35.00;;;;;;;-145.50;100.00;65435.88;4926774;29;20115;-47
2021/06/18 06:54:46;;;;;;;37.22;33.33;;;;;;;-145.50;100.00;65435.88;4920103;29;20052;-48
2021/06/18 06:57:15;;;;;;;38.55;34.33;;;;;;;-145.50;100.00;65435.88;4928070;29;20154;-48
2021/06/18 06:59:41;;;;;;;37.42;32.47;;;;;;;-145.50;100.00;65435.88;4921805;29;20561;-49
2021/06/18 07:02:08;;;;;;;38.47;34.53;;;;;;;-145.50;100.00;65435.88;4919708;29;20146;-48
2021/06/18 07:04:35;;;;;;;37.55;33.55;;;;;;;-145.50;100.00;65435.88;4927456;29;20055;-46
2021/06/18 07:07:01;;;;;;;39.03;33.92;;;;;;;-145.50;100.00;65435.88;4921846;29;20428;-48
2021/06/18 07:09:28;;;;;;;37.15;32.63;;;;;;;-145.50;100.00;65435.88;4924995;29;20150;-47
2021/06/18 07:11:54;;;;;;;35.78;31.92;;;;;;;-145.50;100.00;65435.88;4924034;29;20547;-47
2021/06/18 07:14:21;;;;;;;35.22;30.58;;;;;;;-145.50;100.00;65435.88;4922172;29;20060;-46
2021/06/18 07:16:47;;;;;;;37.72;33.67;;;;;;;-145.50;100.00;65435.88;4917951;29;20185;-46
2021/06/18 07:19:14;;;;;;;35.28;31.50;;;;;;;-145.50;100.00;65435.88;4927032;29;20079;-48
2021/06/18 07:21:40;;;;;;;38.78;32.78;;;;;;;-145.50;100.00;65435.88;4923747;29;20346;-46
2021/06/18 07:24:07;;;;;;;36.22;30.73;;;;;;;-145.50;100.00;65435.88;4923419;29;20087;-48
2021/06/18 07:26:33;;;;;;;32.60;29.23;;;;;;;-145.50;100.00;65435.88;4927411;29;20448;-47
2021/06/18 07:29:00;;;;;;;36.97;29.30;;;;;;;-145.50;100.00;65435.88;4917056;29;20444;-47
2021/06/18 07:31:26;;;;;;;34.38;28.13;;;;;;;-145.50;100.00;65435.88;4925616;29;20150;-46
2021/06/18 07:33:53;;;;;;;33.10;28.55;;;;;;;-145.50;100.00;65435.88;4919473;29;20170;-47
2021/06/18 07:36:19;;;;;;;33.95;28.85;;;;;;;-145.50;100.00;65435.88;4918898;29;20127;-46
2021/06/18 07:38:46;;;;;;;33.75;30.10;;;;;;;-145.50;100.00;65435.88;4917459;29;20134;-46
2021/06/18 07:41:12;;;;;;;32.10;28.85;;;;;;;-145.50;100.00;65435.88;4924417;29;20118;-47
2021/06/18 07:43:39;;;;;;;33.03;29.45;;;;;;;-145.50;100.00;65435.88;4920265;29;20052;-47
2021/06/18 07:46:06;;;;;;;34.97;30.35;;;;;;;-145.50;100.00;65435.88;4920922;29;20083;-46
2021/06/18 07:48:37;;;;;;;35.00;31.20;;;;;;;-145.50;100.00;65435.88;4922719;29;20063;-49
2021/06/18 07:51:04;;;;;;;36.28;31.00;;;;;;;-145.50;100.00;65435.88;4917214;29;20146;-48
2021/06/18 07:53:31;;;;;;;37.72;30.13;;;;;;;-145.50;100.00;65435.88;4909343;29;20856;-46
2021/06/18 07:55:57;;;;;;;36.65;32.80;;;;;;;-145.50;100.00;65435.88;4917953;29;20138;-47
2021/06/18 07:58:24;;;;;;;34.58;30.42;;;;;;;-145.50;100.00;65435.88;4923156;29;20067;-46
2021/06/18 08:00:50;;;;;;;38.88;34.50;;;;;;;-145.50;100.00;65435.88;4920464;29;20251;-46
2021/06/18 08:03:17;;;;;;;39.08;34.85;;;;;;;-145.50;100.00;65435.88;4926470;29;20583;-47
2021/06/18 08:05:43;;;;;;;37.90;32.42;;;;;;;-145.50;100.00;65435.88;4907953;29;20071;-48
2021/06/18 08:08:12;;;;;;;38.22;34.28;;;;;;;-145.50;100.00;65435.88;4921385;29;20134;-49
2021/06/18 08:10:49;;;;;;;41.67;34.85;;;;;;;-145.50;100.00;65435.88;4922071;29;20134;-47
2021/06/18 08:13:16;;;;;;;40.83;35.75;;;;;;;-145.50;100.00;65435.88;4917230;29;20090;-47
2021/06/18 08:15:42;;;;;;;40.67;35.58;;;;;;;-145.50;100.00;65435.88;4926040;29;20143;-47
2021/06/18 08:18:09;;;;;;;44.00;38.55;;;;;;;-145.50;100.00;65435.88;4920984;29;20139;-47
2021/06/18 08:20:36;;;;;;;44.03;36.60;;;;;;;-145.50;100.00;65435.88;4916655;29;20174;-49
2021/06/18 08:23:02;;;;;;;44.73;38.10;;;;;;;-145.50;100.00;65435.88;4916976;29;20587;-46
2021/06/18 08:25:29;;;;;;;43.15;38.40;;;;;;;-145.50;100.00;65435.88;4921731;29;20083;-47
2021/06/18 08:27:56;;;;;;;45.08;38.20;;;;;;;-145.50;100.00;65435.88;4926225;29;20772;-46
2021/06/18 08:30:24;;;;;;;46.92;39.60;;;;;;;-145.50;100.00;65435.88;4919859;29;20143;-46
2021/06/18 08:32:52;;;;;;;43.65;38.95;;;;;;;-145.50;100.00;65435.88;4926008;29;20130;-50
2021/06/18 08:35:20;;;;;;;44.65;39.60;;;;;;;-145.50;100.00;65435.88;4920263;29;20070;-46
2021/06/18 08:37:48;;;;;;;42.03;37.50;;;;;;;-145.50;100.00;65435.88;4922396;29;20193;-47
2021/06/18 08:40:15;;;;;;;44.08;39.28;;;;;;;-145.50;100.00;65435.88;4916200;29;20579;-46
2021/06/18 08:42:42;;;;;;;44.50;39.15;;;;;;;-145.50;100.00;65435.88;4925248;29;20680;-47
2021/06/18 08:45:09;;;;;;;41.75;36.28;;;;;;;-145.50;100.00;65435.88;4924975;29;20159;-47
2021/06/18 08:47:37;;;;;;;44.13;39.03;;;;;;;-145.50;100.00;65435.88;4901873;29;20052;-46
2021/06/18 08:50:04;;;;;;;45.17;40.17;;;;;;;-145.50;100.00;65435.88;4915243;29;20136;-46
2021/06/18 08:52:31;;;;;;;48.72;40.33;;;;;;;-145.50;100.00;65435.88;4892027;29;20470;-47
2021/06/18 08:54:59;;;;;;;48.28;42.35;;;;;;;-145.50;100.00;65435.88;4919273;29;20083;-47
2021/06/18 08:57:25;;;;;;;47.75;41.20;;;;;;;-145.50;100.00;65435.88;4919201;29;20138;-47
2021/06/18 08:59:52;;;;;;;52.08;42.05;;;;;;;-145.50;100.00;65435.88;4926160;29;20055;-48
2021/06/18 09:02:19;;;;;;;46.40;40.67;;;;;;;-145.50;100.00;65435.88;4924938;29;20142;-46
2021/06/18 09:05:10;;;;;;;48.20;41.92;;;;;;;-145.50;100.00;65435.88;4916632;29;20063;-47
2021/06/18 09:08:01;;;;;;;49.60;42.45;;;;;;;-145.50;100.00;65435.88;4920575;29;20099;-46
2021/06/18 09:10:32;;;;;;;49.92;43.67;;;;;;;-145.50;100.00;65435.88;4924775;29;20079;-47
2021/06/18 09:13:22;;;;;;;54.28;44.90;;;;;;;-145.50;100.00;65435.88;4914390;29;20729;-47
2021/06/18 09:15:50;;;;;;;52.53;45.25;;;;;;;-145.50;100.00;65435.88;4906029;29;20158;-47
2021/06/18 09:18:25;;;;;;;53.63;42.92;;;;;;;-145.50;100.00;65435.88;4921920;29;20130;-47
2021/06/18 09:20:54;;;;;;;53.95;42.15;;;;;;;-145.50;100.00;65435.88;4893651;29;20228;-47
2021/06/18 09:23:24;;;;;;;52.45;41.63;;;;;;;-145.50;100.00;65435.88;4919604;29;20126;-50
2021/06/18 09:26:16;;;;;;;47.72;40.10;;;;;;;-145.50;100.00;65435.88;4912494;29;20884;-47
2021/06/18 09:29:03;;;;;;;51.90;40.88;;;;;;;-145.50;100.00;65435.88;4912011;29;20052;-47
2021/06/18 09:31:33;;;;;;;50.17;40.70;;;;;;;-145.50;100.00;65435.88;4907736;29;20096;-46
2021/06/18 09:34:01;;;;;;;48.67;41.90;;;;;;;-145.50;100.00;65435.88;4920803;29;20130;-47
2021/06/18 09:36:28;;;;;;;50.10;42.72;;;;;;;-145.50;100.00;65435.88;4919707;29;20114;-47
2021/06/18 09:38:57;;;;;;;44.78;37.40;;;;;;;-145.50;100.00;65435.88;4927794;29;20548;-47
2021/06/18 09:41:41;;;;;;;46.33;37.30;;;;;;;-145.50;100.00;65435.88;4921449;29;20147;-47
2021/06/18 09:44:19;;;;;;;45.10;34.78;;;;;;;-145.50;100.00;65435.88;4915689;29;20147;-51
2021/06/18 09:46:54;;;;;;;37.58;31.75;;;;;;;-145.50;100.00;65435.88;4925786;29;20578;-48
2021/06/18 09:49:38;;;;;;;40.92;33.22;;;;;;;-145.50;100.00;65435.88;4922865;29;20135;-48
2021/06/18 09:52:10;;;;;;;39.47;31.95;;;;;;;-145.50;100.00;65435.88;4915910;29;20656;-47
2021/06/18 09:54:42;;;;;;;36.33;31.00;;;;;;;-145.50;100.00;65435.88;4923090;29;20083;-47
2021/06/18 09:57:15;;;;;;;36.08;31.17;;;;;;;-145.50;100.00;65435.88;4928298;29;20139;-48
2021/06/18 09:59:51;;;;;;;35.72;29.83;;;;;;;-145.50;100.00;65435.88;4913460;29;20146;-48
2021/06/18 10:02:20;;;;;;;37.92;29.63;;;;;;;-145.50;100.00;65435.88;4926808;29;20492;-48
2021/06/18 10:04:49;;;;;;;38.28;29.50;;;;;;;-145.50;100.00;65435.88;4923944;29;20055;-47
2021/06/18 10:07:16;;;;;;;40.08;30.33;;;;;;;-145.50;100.00;65435.88;4929242;29;20087;-47
2021/06/18 10:09:44;;;;;;;34.55;28.77;;;;;;;-145.50;100.00;65435.88;4905840;29;20063;-50
2021/06/18 10:12:11;;;;;;;32.17;26.80;;;;;;;-145.50;100.00;65435.88;4917544;29;20052;-47
2021/06/18 10:14:37;;;;;;;32.20;27.88;;;;;;;-145.50;100.00;65435.88;4919373;29;20088;-47
2021/06/18 10:17:04;;;;;;;32.70;26.02;;;;;;;-145.50;100.00;65435.88;4922881;29;20095;-49
2021/06/18 10:19:31;;;;;;;31.35;27.23;;;;;;;-145.50;100.00;65435.88;4909965;29;20052;-47
2021/06/18 10:22:01;;;;;;;35.65;26.88;;;;;;;-145.50;100.00;65435.88;4910143;29;20154;-47
2021/06/18 10:24:42;;;;;;;36.30;28.77;;;;;;;-145.50;100.00;65435.88;4928601;29;20091;-48
2021/06/18 10:27:10;;;;;;;35.55;29.17;;;;;;;-145.50;100.00;65435.88;4914215;29;20083;-48
2021/06/18 10:29:41;;;;;;;44.25;33.55;;;;;;;-145.50;100.00;65435.88;4925575;29;20056;-48
2021/06/18 10:32:31;;;;;;;37.60;30.48;;;;;;;-145.50;100.00;65435.88;4918165;29;20150;-47
2021/06/18 10:35:00;;;;;;;44.28;35.13;;;;;;;-145.50;100.00;65435.88;4921091;29;20150;-47
2021/06/18 10:37:30;;;;;;;42.42;34.08;;;;;;;-145.50;100.00;65435.88;4924729;29;20091;-49
2021/06/18 10:40:06;;;;;;;45.00;33.42;;;;;;;-145.50;100.00;65435.88;4922450;29;20526;-49
2021/06/18 10:42:32;;;;;;;38.30;31.90;;;;;;;-145.50;100.00;65435.88;4925034;29;20146;-49
2021/06/18 10:45:00;;;;;;;45.35;35.47;;;;;;;-145.50;100.00;65435.88;4919546;29;20405;-51
2021/06/18 10:47:34;;;;;;;44.65;35.78;;;;;;;-145.50;100.00;65435.88;4921646;29;20150;-48
2021/06/18 10:50:02;;;;;;;49.92;38.38;;;;;;;-145.50;100.00;65435.88;4918267;29;20088;-47
2021/06/18 10:52:38;;;;;;;44.00;37.08;;;;;;;-145.50;100.00;65435.88;4904521;29;20552;-50
2021/06/18 10:55:06;;;;;;;43.63;32.88;;;;;;;-145.50;100.00;65435.88;4914800;29;20134;-48
2021/06/18 10:57:33;;;;;;;45.15;38.75;;;;;;;-145.50;100.00;65435.88;4927943;29;20845;-50
2021/06/18 11:00:20;;;;;;;42.75;35.42;;;;;;;-145.50;100.00;65435.88;4923228;29;20047;-48
2021/06/18 11:02:47;;;;;;;45.22;34.72;;;;;;;-145.50;100.00;65435.88;4926359;29;20141;-49